Time;durP1;ratioP1;P1;durP2;ratioP2;P2;SDS_P1;SDS_P2;PMS_P1;PMS_P2;Temp;Humidity;BMP_temperature;BMP_pressure;BME280_temperature;BME280_humidity;BME280_pressure;Samples;Min_cycle;Max_cycle;Signal;HPM_P1;HPM_P2
2023/06/28 00:00:13;;;;;;;16.63;7.93;;;24.20;99.90;;;;;;7393091;19;19946;-75
2023/06/28 00:02:39;;;;;;;16.65;8.38;;;24.20;99.90;;;;;;7392795;19;19915;-76
2023/06/28 00:05:09;;;;;;;12.60;7.93;;;24.30;99.90;;;;;;7388165;19;19982;-74
2023/06/28 00:07:35;;;;;;;13.95;8.00;;;24.30;99.90;;;;;;7394179;19;19943;-75
2023/06/28 00:10:01;;;;;;;16.08;8.65;;;24.30;99.90;;;;;;7391555;19;19938;-74
2023/06/28 00:12:29;;;;;;;17.15;8.88;;;24.30;99.90;;;;;;7393366;19;20003;-73
2023/06/28 00:14:55;;;;;;;14.65;8.38;;;24.30;99.90;;;;;;7392773;19;20255;-75
2023/06/28 00:17:30;;;;;;;16.67;9.45;;;24.30;99.90;;;;;;7337354;19;20525;-73
2023/06/28 00:19:57;;;;;;;15.02;8.60;;;24.30;99.90;;;;;;7388756;19;20331;-73
2023/06/28 00:22:28;;;;;;;14.77;8.95;;;24.30;99.90;;;;;;7385225;19;19918;-74
2023/06/28 00:24:58;;;;;;;17.48;8.57;;;24.20;99.90;;;;;;7395659;19;19981;-74
2023/06/28 00:27:24;;;;;;;13.82;8.20;;;24.30;99.90;;;;;;7393006;19;19955;-75
2023/06/28 00:29:50;;;;;;;15.07;8.77;;;24.20;99.90;;;;;;7391791;19;19914;-74
2023/06/28 00:32:16;;;;;;;13.35;8.43;;;24.20;99.90;;;;;;7387630;19;19958;-75
2023/06/28 00:34:42;;;;;;;14.57;7.75;;;24.30;99.90;;;;;;7393315;19;19926;-74
2023/06/28 00:37:09;;;;;;;13.60;7.97;;;24.30;99.90;;;;;;7370040;19;20394;-74
2023/06/28 00:39:35;;;;;;;19.92;8.73;;;24.30;99.90;;;;;;7394746;19;20031;-74
2023/06/28 00:42:02;;;;;;;15.90;8.60;;;24.30;99.90;;;;;;7371882;19;19927;-74
2023/06/28 00:44:27;;;;;;;13.18;8.27;;;24.40;99.90;;;;;;7390517;19;19922;-75
2023/06/28 00:46:55;;;;;;;14.68;8.18;;;24.50;99.90;;;;;;7386666;19;19937;-74
2023/06/28 00:49:23;;;;;;;13.40;7.93;;;24.50;99.90;;;;;;7386163;19;19922;-74
2023/06/28 00:51:51;;;;;;;13.75;7.68;;;24.50;99.90;;;;;;7390861;19;19926;-74
2023/06/28 00:54:18;;;;;;;16.42;9.50;;;24.50;99.90;;;;;;7386935;19;20030;-74
2023/06/28 00:56:45;;;;;;;14.82;8.13;;;24.60;99.90;;;;;;7385483;19;20965;-74
2023/06/28 00:59:11;;;;;;;12.20;7.68;;;24.60;99.90;;;;;;7389046;19;20268;-74
2023/06/28 01:01:38;;;;;;;15.90;9.00;;;24.60;99.90;;;;;;7392492;19;19926;-74
2023/06/28 01:04:06;;;;;;;15.18;7.88;;;24.70;99.90;;;;;;7393289;19;19919;-74
2023/06/28 01:06:36;;;;;;;20.67;9.40;;;24.70;99.90;;;;;;7394567;19;19943;-74
2023/06/28 01:09:09;;;;;;;18.33;9.23;;;24.70;99.90;;;;;;7389980;19;19918;-74
2023/06/28 01:11:35;;;;;;;19.45;9.48;;;24.70;99.90;;;;;;7390306;19;22130;-74
2023/06/28 01:14:02;;;;;;;15.27;9.52;;;24.60;99.90;;;;;;7390830;19;20295;-74
2023/06/28 01:16:28;;;;;;;18.20;9.85;;;24.70;99.90;;;;;;7392383;19;19915;-75
2023/06/28 01:18:54;;;;;;;20.98;10.48;;;24.60;99.90;;;;;;7360415;19;19922;-75
2023/06/28 01:21:24;;;;;;;19.67;10.50;;;24.60;99.90;;;;;;7388528;19;19918;-75
2023/06/28 01:23:50;;;;;;;18.17;10.70;;;24.50;99.90;;;;;;7390305;19;19915;-75
2023/06/28 01:26:16;;;;;;;19.77;9.98;;;24.50;99.90;;;;;;7389478;19;19911;-74
2023/06/28 01:28:44;;;;;;;19.33;10.55;;;24.50;99.90;;;;;;7390186;19;19923;-74
2023/06/28 01:31:11;;;;;;;18.20;10.60;;;24.50;99.90;;;;;;7385529;19;19931;-74
2023/06/28 01:33:38;;;;;;;19.60;10.98;;;24.50;99.90;;;;;;7390980;19;19970;-75
2023/06/28 01:36:04;;;;;;;20.67;11.48;;;24.50;99.90;;;;;;7387859;19;19954;-74
2023/06/28 01:38:32;;;;;;;23.83;12.50;;;24.50;99.90;;;;;;7393986;19;19918;-74
2023/06/28 01:40:59;;;;;;;21.80;12.65;;;24.50;99.90;;;;;;7391806;19;19922;-74
2023/06/28 01:43:25;;;;;;;20.35;11.18;;;24.40;99.90;;;;;;7387771;19;19970;-75
2023/06/28 01:45:52;;;;;;;21.58;12.15;;;24.50;99.90;;;;;;7393401;19;19927;-74
2023/06/28 01:48:18;;;;;;;23.08;12.05;;;24.50;99.90;;;;;;7394868;19;19922;-74
2023/06/28 01:50:45;;;;;;;19.33;12.10;;;24.50;99.90;;;;;;7397799;19;20296;-75
2023/06/28 01:53:11;;;;;;;18.05;11.00;;;24.50;99.90;;;;;;7392123;19;19935;-75
2023/06/28 01:55:37;;;;;;;21.83;12.02;;;24.50;99.90;;;;;;7398566;19;19911;-74
2023/06/28 01:58:03;;;;;;;17.80;10.70;;;24.50;99.90;;;;;;7395105;19;19982;-74
2023/06/28 02:00:29;;;;;;;17.63;10.60;;;24.50;99.90;;;;;;7396495;19;19923;-75
2023/06/28 02:02:55;;;;;;;17.20;11.38;;;24.50;99.90;;;;;;7403991;19;19918;-75
2023/06/28 02:05:21;;;;;;;17.17;10.38;;;24.50;99.90;;;;;;7393867;19;19918;-74
2023/06/28 02:07:47;;;;;;;23.20;11.48;;;24.50;99.90;;;;;;7395586;19;19948;-76
2023/06/28 02:10:12;;;;;;;17.33;10.85;;;24.40;99.90;;;;;;7397671;19;20351;-75
2023/06/28 02:12:39;;;;;;;17.63;10.32;;;24.50;99.90;;;;;;7394828;19;20374;-75
2023/06/28 02:15:06;;;;;;;23.27;11.45;;;24.40;99.90;;;;;;7397004;19;19947;-75
2023/06/28 02:17:32;;;;;;;17.25;10.25;;;24.40;99.90;;;;;;7390591;19;19910;-75
2023/06/28 02:19:58;;;;;;;21.02;9.77;;;24.40;99.90;;;;;;7395802;19;19907;-75
2023/06/28 02:22:25;;;;;;;16.33;9.23;;;24.50;99.90;;;;;;7398955;19;20258;-75
2023/06/28 02:24:51;;;;;;;19.83;10.07;;;24.40;99.90;;;;;;7367590;19;19914;-75
2023/06/28 02:27:17;;;;;;;17.60;11.38;;;24.40;99.90;;;;;;7393452;19;19911;-75
2023/06/28 02:29:43;;;;;;;17.25;10.55;;;24.40;99.90;;;;;;7396661;19;19966;-75
2023/06/28 02:32:09;;;;;;;13.13;9.02;;;24.40;99.90;;;;;;7394557;19;19918;-75
2023/06/28 02:34:35;;;;;;;16.42;9.88;;;24.40;99.90;;;;;;7395856;19;19974;-76
2023/06/28 02:37:01;;;;;;;15.38;9.82;;;24.40;99.90;;;;;;7397346;19;19918;-75
2023/06/28 02:39:27;;;;;;;17.38;9.55;;;24.30;99.90;;;;;;7374611;19;20276;-75
2023/06/28 02:41:52;;;;;;;15.15;10.55;;;24.30;99.90;;;;;;7397168;19;19958;-75
2023/06/28 02:44:18;;;;;;;17.20;10.65;;;24.30;99.90;;;;;;7372701;19;19906;-75
2023/06/28 02:46:44;;;;;;;17.02;10.50;;;24.30;99.90;;;;;;7392876;19;20337;-75
2023/06/28 02:49:10;;;;;;;16.75;10.38;;;24.30;99.90;;;;;;7396223;19;19922;-75
2023/06/28 02:51:37;;;;;;;15.00;10.35;;;24.20;99.90;;;;;;7396343;19;20012;-76
2023/06/28 02:54:03;;;;;;;21.02;11.38;;;24.30;99.90;;;;;;7395520;19;19923;-74
2023/06/28 02:56:28;;;;;;;21.13;11.80;;;24.20;99.90;;;;;;7395540;19;19914;-75
2023/06/28 02:58:54;;;;;;;17.10;10.50;;;24.30;99.90;;;;;;7392818;19;20675;-75
2023/06/28 03:01:23;;;;;;;20.13;11.57;;;24.30;99.90;;;;;;7393654;19;19918;-75
2023/06/28 03:03:48;;;;;;;16.60;10.85;;;24.30;99.90;;;;;;7393379;19;19978;-75
2023/06/28 03:06:18;;;;;;;20.10;11.65;;;24.30;99.90;;;;;;7391043;19;19939;-76
2023/06/28 03:08:44;;;;;;;23.88;12.00;;;24.30;99.90;;;;;;7392402;19;19942;-75
2023/06/28 03:11:10;;;;;;;20.00;12.07;;;24.30;99.90;;;;;;7395584;19;19910;-75
2023/06/28 03:13:36;;;;;;;24.52;14.13;;;24.30;99.90;;;;;;7394494;19;19918;-75
2023/06/28 03:16:01;;;;;;;25.90;13.43;;;24.20;99.90;;;;;;7398785;19;19923;-75
2023/06/28 03:18:27;;;;;;;23.95;14.27;;;24.20;99.90;;;;;;7392960;19;19914;-75
2023/06/28 03:20:53;;;;;;;26.38;15.07;;;24.20;99.90;;;;;;7396017;19;19977;-76
2023/06/28 03:23:19;;;;;;;25.20;14.73;;;24.20;99.90;;;;;;7354323;19;19915;-75
2023/06/28 03:25:45;;;;;;;27.17;15.45;;;24.20;99.90;;;;;;7397774;19;20824;-75
2023/06/28 03:28:11;;;;;;;25.70;16.88;;;24.30;99.90;;;;;;7391690;19;19914;-75
2023/06/28 03:30:37;;;;;;;31.70;17.60;;;24.30;99.90;;;;;;7392583;19;19926;-75
2023/06/28 03:33:03;;;;;;;26.15;17.08;;;24.30;99.90;;;;;;7390912;19;19922;-75
2023/06/28 03:35:29;;;;;;;29.92;16.13;;;24.40;99.90;;;;;;7392967;19;19907;-76
2023/06/28 03:37:55;;;;;;;22.38;13.30;;;24.40;99.90;;;;;;7390400;19;20332;-75
2023/06/28 03:40:22;;;;;;;20.77;14.10;;;24.50;99.90;;;;;;7395893;19;19922;-76
2023/06/28 03:42:48;;;;;;;21.13;13.60;;;24.50;99.90;;;;;;7391041;19;19910;-75
2023/06/28 03:45:15;;;;;;;20.40;12.90;;;24.50;99.90;;;;;;7392205;19;20293;-75
2023/06/28 03:47:41;;;;;;;24.70;13.35;;;24.50;99.90;;;;;;7392703;19;20334;-75
2023/06/28 03:50:07;;;;;;;24.65;14.38;;;24.50;99.90;;;;;;7393852;19;20382;-75
2023/06/28 03:52:33;;;;;;;25.83;15.65;;;24.50;99.90;;;;;;7397154;19;21561;-75
2023/06/28 03:54:59;;;;;;;22.85;14.77;;;24.50;99.90;;;;;;7398015;19;19919;-75
2023/06/28 03:57:25;;;;;;;24.40;15.25;;;24.50;99.90;;;;;;7392415;19;19930;-75
2023/06/28 03:59:51;;;;;;;26.63;15.88;;;24.50;99.90;;;;;;7393020;19;20254;-75
2023/06/28 04:02:16;;;;;;;24.38;14.90;;;24.50;99.90;;;;;;7391385;19;19918;-75
2023/06/28 04:04:42;;;;;;;23.65;15.65;;;24.50;99.90;;;;;;7396085;19;19985;-75
2023/06/28 04:07:08;;;;;;;25.40;17.65;;;24.50;99.90;;;;;;7396795;19;20469;-75
2023/06/28 04:09:34;;;;;;;28.90;16.00;;;24.60;99.90;;;;;;7400977;19;20706;-75
2023/06/28 04:12:00;;;;;;;26.00;17.70;;;24.60;99.90;;;;;;7397036;19;20332;-76
2023/06/28 04:14:25;;;;;;;27.70;16.70;;;24.60;99.90;;;;;;7392765;19;19918;-75
2023/06/28 04:16:52;;;;;;;26.27;17.23;;;24.60;99.90;;;;;;7359706;19;19922;-75
2023/06/28 04:19:18;;;;;;;30.00;18.20;;;24.50;99.90;;;;;;7390845;19;20810;-75
2023/06/28 04:21:43;;;;;;;31.08;19.10;;;24.50;99.90;;;;;;7393427;19;19940;-75
2023/06/28 04:24:09;;;;;;;31.15;19.33;;;24.50;99.90;;;;;;7393032;19;20228;-75
2023/06/28 04:26:35;;;;;;;31.17;19.00;;;24.50;99.90;;;;;;7397145;19;19955;-76
2023/06/28 04:29:01;;;;;;;29.70;17.85;;;24.60;99.90;;;;;;7374707;19;19928;-74
2023/06/28 04:31:27;;;;;;;31.90;17.88;;;24.60;99.90;;;;;;7359402;19;19911;-75
2023/06/28 04:33:56;;;;;;;25.67;16.80;;;24.60;99.90;;;;;;7391982;19;19930;-75
2023/06/28 04:36:22;;;;;;;27.10;17.20;;;24.50;99.90;;;;;;7394766;19;20485;-75
2023/06/28 04:38:52;;;;;;;27.13;16.90;;;24.60;99.90;;;;;;7394963;19;19910;-75
2023/06/28 04:41:27;;;;;;;31.08;18.95;;;24.60;99.90;;;;;;7398182;19;19934;-75
2023/06/28 04:43:57;;;;;;;33.00;17.35;;;24.60;99.90;;;;;;7398920;19;19918;-75
2023/06/28 04:46:26;;;;;;;32.83;16.30;;;24.60;99.90;;;;;;7400117;19;19922;-75
2023/06/28 04:48:53;;;;;;;30.67;18.10;;;24.70;99.90;;;;;;7399131;19;19911;-76
2023/06/28 04:51:20;;;;;;;30.05;17.17;;;24.60;99.90;;;;;;7389378;19;20274;-76
2023/06/28 04:53:49;;;;;;;29.02;16.65;;;24.70;99.90;;;;;;7395182;19;19970;-75
2023/06/28 04:56:15;;;;;;;38.25;17.55;;;24.60;99.90;;;;;;7394476;19;20278;-75
2023/06/28 04:58:42;;;;;;;32.85;17.33;;;24.60;99.90;;;;;;7390663;19;20078;-75
2023/06/28 05:01:10;;;;;;;29.27;17.08;;;24.70;99.90;;;;;;7389755;19;19928;-76
2023/06/28 05:03:38;;;;;;;28.38;18.27;;;24.70;99.90;;;;;;7391581;19;19944;-75
2023/06/28 05:06:09;;;;;;;27.67;17.48;;;24.70;99.90;;;;;;7390076;19;19935;-75
2023/06/28 05:08:35;;;;;;;28.20;17.83;;;24.70;99.90;;;;;;7393929;19;19907;-76
2023/06/28 05:11:02;;;;;;;36.20;18.42;;;24.70;99.90;;;;;;7393961;19;19922;-75
2023/06/28 05:13:28;;;;;;;32.45;19.42;;;24.70;99.90;;;;;;7388626;19;19956;-74
2023/06/28 05:15:54;;;;;;;31.63;18.08;;;24.70;99.90;;;;;;7391741;19;19907;-76
2023/06/28 05:18:20;;;;;;;29.75;16.05;;;24.80;99.90;;;;;;7389112;19;20358;-75
2023/06/28 05:20:47;;;;;;;30.27;18.65;;;24.80;99.90;;;;;;7388482;19;19943;-75
2023/06/28 05:23:18;;;;;;;31.90;18.17;;;24.90;99.90;;;;;;7390771;19;19911;-76
2023/06/28 05:25:45;;;;;;;29.50;15.75;;;24.80;99.90;;;;;;7390396;19;20288;-75
2023/06/28 05:28:13;;;;;;;33.60;18.45;;;24.90;99.90;;;;;;7385669;19;20307;-75
2023/06/28 05:30:40;;;;;;;29.95;18.08;;;24.90;99.90;;;;;;7368230;19;19935;-76
2023/06/28 05:33:05;;;;;;;30.40;18.33;;;24.90;99.90;;;;;;7389352;19;19907;-75
2023/06/28 05:35:35;;;;;;;31.48;18.80;;;24.90;99.90;;;;;;7388564;19;19918;-75
2023/06/28 05:38:03;;;;;;;29.88;17.10;;;24.90;99.90;;;;;;7401963;19;19931;-77
2023/06/28 05:40:30;;;;;;;28.52;17.67;;;24.90;99.90;;;;;;7398625;19;19922;-75
2023/06/28 05:42:58;;;;;;;33.10;18.02;;;24.90;99.90;;;;;;7398134;19;19956;-75
2023/06/28 05:45:27;;;;;;;27.83;16.58;;;24.90;99.90;;;;;;7394257;19;19926;-76
2023/06/28 05:47:54;;;;;;;33.15;19.48;;;24.90;99.90;;;;;;7397925;19;20629;-76
2023/06/28 05:50:22;;;;;;;;;;;24.90;99.90;;;;;;7399456;19;19919;-75
2023/06/28 05:52:49;;;;;;;31.17;17.88;;;24.90;99.90;;;;;;7400415;19;19910;-77
2023/06/28 05:55:15;;;;;;;29.13;18.98;;;24.90;99.90;;;;;;7394556;19;19915;-75
2023/06/28 05:57:41;;;;;;;28.65;17.75;;;24.90;99.90;;;;;;7395306;19;20322;-76
2023/06/28 06:00:08;;;;;;;;;;;25.00;99.90;;;;;;7396997;19;20484;-75
2023/06/28 06:02:34;;;;;;;31.70;17.95;;;25.10;99.90;;;;;;7400487;19;19919;-74
2023/06/28 06:05:02;;;;;;;27.55;15.88;;;25.10;99.90;;;;;;7397841;19;20251;-73
2023/06/28 06:07:28;;;;;;;28.15;17.40;;;25.10;99.90;;;;;;7394829;19;20339;-73
2023/06/28 06:09:55;;;;;;;26.13;16.30;;;25.00;99.90;;;;;;7394611;19;20581;-73
2023/06/28 06:12:21;;;;;;;32.55;17.55;;;25.10;99.90;;;;;;7361691;19;19915;-72
2023/06/28 06:14:50;;;;;;;26.35;16.30;;;25.20;99.90;;;;;;7393938;19;20279;-73
2023/06/28 06:17:19;;;;;;;30.73;16.95;;;25.10;99.90;;;;;;7394878;19;20040;-72
2023/06/28 06:19:45;;;;;;;33.80;21.80;;;25.20;99.90;;;;;;7397581;19;20522;-74
2023/06/28 06:22:10;;;;;;;28.17;18.08;;;25.30;99.90;;;;;;7392378;19;19914;-73
2023/06/28 06:24:36;;;;;;;26.90;17.23;;;25.30;99.90;;;;;;7371151;19;19978;-73
2023/06/28 06:27:03;;;;;;;24.60;16.73;;;25.40;99.90;;;;;;7393540;19;20339;-73
2023/06/28 06:29:29;;;;;;;29.05;16.38;;;25.40;99.90;;;;;;7398589;19;19922;-73
2023/06/28 06:31:55;;;;;;;26.27;16.83;;;25.50;99.90;;;;;;7397423;19;20003;-73
2023/06/28 06:34:21;;;;;;;24.52;15.80;;;25.60;99.90;;;;;;7395893;19;19911;-73
2023/06/28 06:36:47;;;;;;;27.10;16.80;;;25.60;99.90;;;;;;7397136;19;19914;-73
2023/06/28 06:39:13;;;;;;;24.40;16.35;;;25.70;99.90;;;;;;7392102;19;19923;-73
2023/06/28 06:41:38;;;;;;;26.60;17.83;;;25.80;99.80;;;;;;7399070;19;19980;-73
2023/06/28 06:44:04;;;;;;;25.85;16.92;;;25.80;99.50;;;;;;7390932;19;19914;-73
2023/06/28 06:46:30;;;;;;;24.38;15.90;;;25.80;99.40;;;;;;7392405;19;19921;-76
2023/06/28 06:48:56;;;;;;;24.40;16.45;;;25.90;99.00;;;;;;7394022;19;19923;-75
2023/06/28 06:51:21;;;;;;;25.38;15.75;;;25.80;98.60;;;;;;7392168;19;19921;-75
2023/06/28 06:53:47;;;;;;;24.30;15.35;;;25.80;98.80;;;;;;7395698;19;19918;-76
2023/06/28 06:56:19;;;;;;;23.33;16.70;;;25.90;98.60;;;;;;7390585;19;19933;-75
2023/06/28 06:58:45;;;;;;;26.15;17.00;;;26.10;98.20;;;;;;7395816;19;19910;-75
2023/06/28 07:01:10;;;;;;;22.92;15.57;;;26.10;98.10;;;;;;7368473;19;19926;-76
2023/06/28 07:03:36;;;;;;;24.20;15.68;;;26.10;97.70;;;;;;7363344;19;19917;-75
2023/06/28 07:06:02;;;;;;;30.35;14.02;;;26.20;97.20;;;;;;7390110;19;19914;-75
2023/06/28 07:08:28;;;;;;;23.02;15.02;;;26.20;97.20;;;;;;7398926;19;19922;-75
2023/06/28 07:10:54;;;;;;;26.00;15.45;;;26.30;97.00;;;;;;7402016;19;19975;-76
2023/06/28 07:13:20;;;;;;;23.85;15.15;;;26.50;96.60;;;;;;7396458;19;19918;-75
2023/06/28 07:15:46;;;;;;;23.65;15.23;;;26.60;96.10;;;;;;7399140;19;19915;-75
2023/06/28 07:18:11;;;;;;;23.60;15.35;;;26.70;95.60;;;;;;7397204;19;20374;-76
2023/06/28 07:20:37;;;;;;;24.27;14.85;;;26.80;95.10;;;;;;7399187;19;19917;-75
2023/06/28 07:23:04;;;;;;;20.73;13.00;;;26.80;95.00;;;;;;7398846;19;19946;-76
2023/06/28 07:25:32;;;;;;;27.73;14.45;;;26.90;94.50;;;;;;7399918;19;20393;-76
2023/06/28 07:27:58;;;;;;;25.45;16.90;;;27.00;94.10;;;;;;7403868;19;19918;-76
2023/06/28 07:30:24;;;;;;;22.30;13.95;;;26.70;93.90;;;;;;7395790;19;20398;-75
2023/06/28 07:32:50;;;;;;;20.90;15.40;;;26.90;94.10;;;;;;7396345;19;19914;-76
2023/06/28 07:35:15;;;;;;;29.67;16.30;;;27.20;93.50;;;;;;7394568;19;19918;-76
2023/06/28 07:37:41;;;;;;;23.05;14.15;;;27.30;93.20;;;;;;7376536;19;19929;-76
2023/06/28 07:40:08;;;;;;;21.23;14.07;;;27.40;92.50;;;;;;7395611;19;19922;-76
2023/06/28 07:42:36;;;;;;;25.60;16.40;;;27.60;92.10;;;;;;7370105;19;19922;-76
2023/06/28 07:45:02;;;;;;;22.45;13.93;;;27.60;91.70;;;;;;7383160;19;19919;-77
2023/06/28 07:47:28;;;;;;;24.48;15.18;;;27.60;91.60;;;;;;7390659;19;19919;-76
2023/06/28 07:49:54;;;;;;;21.73;14.32;;;27.50;91.60;;;;;;7380470;19;20339;-76
2023/06/28 07:52:19;;;;;;;24.63;14.98;;;27.50;91.70;;;;;;7383671;19;19919;-75
2023/06/28 07:54:45;;;;;;;24.55;15.25;;;27.40;91.80;;;;;;7388779;19;19926;-75
2023/06/28 07:57:11;;;;;;;21.65;12.93;;;27.00;94.20;;;;;;7394707;19;19919;-76
2023/06/28 07:59:38;;;;;;;27.80;12.00;;;26.80;95.30;;;;;;7382233;19;19918;-76
2023/06/28 08:02:04;;;;;;;21.88;14.45;;;26.70;96.50;;;;;;7394375;19;20110;-75
2023/06/28 08:04:32;;;;;;;21.10;12.77;;;26.70;96.60;;;;;;7390324;19;19927;-75
2023/06/28 08:06:59;;;;;;;20.48;12.75;;;26.90;96.40;;;;;;7367673;19;20300;-76
2023/06/28 08:09:25;;;;;;;23.00;10.80;;;27.10;96.20;;;;;;7387723;19;19914;-77
2023/06/28 08:11:51;;;;;;;19.45;12.23;;;27.20;95.60;;;;;;7392987;19;19926;-77
2023/06/28 08:14:16;;;;;;;23.83;12.32;;;27.40;95.10;;;;;;7389543;19;19922;-77
2023/06/28 08:16:43;;;;;;;21.48;13.30;;;27.50;94.60;;;;;;7395469;19;20258;-76
2023/06/28 08:19:10;;;;;;;;;;;27.50;94.50;;;;;;7401115;19;19914;-77
2023/06/28 08:21:36;;;;;;;24.52;13.85;;;27.80;94.00;;;;;;7397431;19;19918;-76
2023/06/28 08:24:02;;;;;;;22.48;14.07;;;27.90;93.50;;;;;;7337993;19;19922;-77
2023/06/28 08:26:28;;;;;;;17.85;11.85;;;28.00;92.90;;;;;;7399644;19;20034;-77
2023/06/28 08:28:54;;;;;;;19.73;11.68;;;28.10;92.40;;;;;;7402418;19;19907;-77
2023/06/28 08:31:20;;;;;;;17.67;11.65;;;28.20;91.90;;;;;;7343454;19;19927;-77
2023/06/28 08:33:46;;;;;;;19.50;12.13;;;28.20;91.60;;;;;;7401888;19;19922;-76
2023/06/28 08:36:12;;;;;;;21.83;12.10;;;28.50;90.90;;;;;;7392509;19;20626;-76
2023/06/28 08:38:38;;;;;;;18.15;11.05;;;28.20;91.20;;;;;;7399395;19;19914;-77
2023/06/28 08:41:03;;;;;;;16.75;11.25;;;28.50;91.00;;;;;;7396600;19;19943;-77
2023/06/28 08:43:30;;;;;;;15.98;11.00;;;28.30;90.70;;;;;;7404045;19;19922;-76
2023/06/28 08:45:55;;;;;;;17.23;10.35;;;28.30;90.80;;;;;;7389735;19;19921;-76
2023/06/28 08:48:21;;;;;;;20.77;10.80;;;28.50;90.40;;;;;;7399574;19;20275;-76
2023/06/28 08:50:51;;;;;;;17.95;9.10;;;28.20;90.60;;;;;;7400937;19;20421;-76
2023/06/28 08:53:21;;;;;;;14.02;8.05;;;28.50;90.40;;;;;;7388690;19;19922;-74
2023/06/28 08:55:53;;;;;;;16.95;10.15;;;28.80;89.90;;;;;;7389861;19;19929;-76
2023/06/28 08:58:20;;;;;;;17.10;10.52;;;29.00;88.70;;;;;;7396330;19;19919;-76
2023/06/28 09:00:46;;;;;;;16.30;9.85;;;29.00;87.60;;;;;;7342916;19;19911;-75
2023/06/28 09:03:18;;;;;;;17.08;10.15;;;29.10;87.10;;;;;;7397264;19;19935;-75
2023/06/28 09:05:45;;;;;;;18.50;12.75;;;28.80;88.50;;;;;;7372146;19;20339;-74
2023/06/28 09:08:11;;;;;;;20.02;11.20;;;28.60;88.30;;;;;;7389281;19;20482;-74
2023/06/28 09:10:39;;;;;;;18.40;11.73;;;28.30;89.80;;;;;;7392048;19;19914;-74
2023/06/28 09:13:19;;;;;;;20.77;10.85;;;28.00;90.40;;;;;;7392714;19;19917;-75
2023/06/28 09:15:48;;;;;;;23.08;10.60;;;28.10;90.50;;;;;;7389961;19;20248;-75
2023/06/28 09:18:15;;;;;;;20.17;11.98;;;27.70;90.90;;;;;;7394100;19;19918;-75
2023/06/28 09:20:49;;;;;;;18.55;11.50;;;27.70;91.60;;;;;;7369966;19;19985;-75
2023/06/28 09:23:32;;;;;;;16.80;9.13;;;28.00;91.00;;;;;;7374682;19;20276;-74
2023/06/28 09:25:58;;;;;;;15.70;10.65;;;28.20;90.50;;;;;;7389969;19;19915;-74
2023/06/28 09:28:32;;;;;;;16.73;10.27;;;28.20;90.30;;;;;;7380479;19;20361;-76
2023/06/28 09:31:05;;;;;;;17.52;10.32;;;28.20;90.10;;;;;;7363239;19;20328;-75
2023/06/28 09:33:31;;;;;;;12.52;8.98;;;28.30;89.30;;;;;;7380541;19;20497;-75
2023/06/28 09:36:02;;;;;;;15.07;9.65;;;28.40;88.20;;;;;;7394983;19;19911;-74
2023/06/28 09:38:29;;;;;;;15.25;9.88;;;28.00;88.70;;;;;;7386108;19;19937;-75
2023/06/28 09:40:57;;;;;;;16.38;8.77;;;28.20;86.30;;;;;;7389719;19;20305;-76
2023/06/28 09:43:23;;;;;;;15.48;8.05;;;28.60;85.70;;;;;;7393921;19;22683;-74
2023/06/28 09:45:49;;;;;;;17.20;9.23;;;28.60;85.20;;;;;;7359953;19;19923;-74
2023/06/28 09:48:21;;;;;;;16.55;9.77;;;28.60;83.90;;;;;;7396714;19;19923;-74
2023/06/28 09:50:47;;;;;;;17.48;9.48;;;28.30;84.20;;;;;;7389192;19;19928;-73
2023/06/28 09:53:19;;;;;;;13.55;9.07;;;28.40;83.30;;;;;;7388522;19;19918;-75
2023/06/28 09:55:46;;;;;;;17.30;9.93;;;28.30;84.50;;;;;;7392715;19;19931;-73
2023/06/28 09:58:21;;;;;;;16.08;9.57;;;28.30;84.50;;;;;;7395341;19;19991;-75
2023/06/28 10:00:50;;;;;;;13.82;9.38;;;28.20;85.60;;;;;;7376734;19;19919;-76
2023/06/28 10:03:20;;;;;;;13.60;8.75;;;28.10;86.80;;;;;;7393171;19;19922;-74
2023/06/28 10:05:45;;;;;;;14.38;9.27;;;28.30;86.80;;;;;;7380471;19;19919;-76
2023/06/28 10:08:14;;;;;;;14.98;9.07;;;28.60;85.60;;;;;;7391217;19;19932;-74
2023/06/28 10:10:41;;;;;;;15.77;9.25;;;28.80;84.40;;;;;;7393322;19;19910;-75
2023/06/28 10:13:11;;;;;;;17.33;9.45;;;28.70;85.10;;;;;;7395310;19;19922;-73
2023/06/28 10:15:49;;;;;;;13.02;8.88;;;28.90;85.00;;;;;;7391146;19;19914;-75
2023/06/28 10:18:15;;;;;;;14.95;8.52;;;29.40;82.60;;;;;;7386312;19;19946;-74
2023/06/28 10:20:42;;;;;;;16.23;8.60;;;28.90;83.40;;;;;;7388910;19;19926;-73
2023/06/28 10:23:12;;;;;;;14.85;8.35;;;28.90;83.60;;;;;;7382580;19;20295;-74
2023/06/28 10:25:41;;;;;;;15.85;8.55;;;28.80;83.10;;;;;;7397395;19;19922;-74
2023/06/28 10:28:08;;;;;;;11.02;8.50;;;29.00;82.20;;;;;;7368564;19;19925;-74
2023/06/28 10:30:33;;;;;;;13.25;8.02;;;28.90;82.40;;;;;;7384614;19;19944;-75
2023/06/28 10:33:00;;;;;;;15.27;8.43;;;28.90;83.20;;;;;;7374717;19;19918;-74
2023/06/28 10:35:27;;;;;;;15.75;7.72;;;28.80;82.50;;;;;;7396567;19;20355;-75
2023/06/28 10:37:57;;;;;;;13.95;8.07;;;29.20;81.80;;;;;;7402047;19;19928;-75
2023/06/28 10:40:26;;;;;;;11.57;8.30;;;29.10;81.50;;;;;;7386518;19;19935;-75
2023/06/28 10:42:53;;;;;;;12.65;8.13;;;29.50;80.80;;;;;;7399942;19;19915;-74
2023/06/28 10:45:35;;;;;;;10.13;7.65;;;29.40;80.20;;;;;;7388392;19;19927;-73
2023/06/28 10:48:04;;;;;;;12.50;7.15;;;29.70;79.70;;;;;;7402982;19;19964;-74
2023/06/28 10:50:41;;;;;;;13.55;7.35;;;30.00;77.80;;;;;;7398398;19;20240;-74
2023/06/28 10:53:22;;;;;;;16.25;7.93;;;30.10;77.50;;;;;;7393232;19;20305;-73
2023/06/28 10:56:12;;;;;;;14.80;8.30;;;29.70;77.30;;;;;;7394439;19;19925;-74
2023/06/28 10:58:39;;;;;;;10.88;7.47;;;29.70;77.60;;;;;;7361740;19;19931;-73
2023/06/28 11:01:07;;;;;;;11.10;7.63;;;29.80;77.10;;;;;;7390981;19;20564;-74
2023/06/28 11:03:43;;;;;;;12.30;7.40;;;29.80;76.90;;;;;;7395834;19;19926;-74
2023/06/28 11:06:13;;;;;;;16.00;8.43;;;29.70;77.60;;;;;;7394600;19;19982;-75
2023/06/28 11:08:45;;;;;;;15.65;8.75;;;29.80;77.20;;;;;;7386494;19;19929;-74
2023/06/28 11:11:35;;;;;;;11.30;7.55;;;30.00;76.40;;;;;;7389778;19;19910;-75
2023/06/28 11:14:20;;;;;;;10.45;7.35;;;29.10;77.40;;;;;;7400716;19;19922;-74
2023/06/28 11:16:48;;;;;;;13.50;7.90;;;29.40;77.50;;;;;;7392458;19;19918;-73
2023/06/28 11:19:15;;;;;;;14.60;8.63;;;29.40;77.20;;;;;;7396906;19;19919;-75
2023/06/28 11:21:41;;;;;;;13.98;7.80;;;29.90;76.90;;;;;;7402218;19;19918;-74
2023/06/28 11:24:07;;;;;;;10.90;7.72;;;30.00;76.80;;;;;;7392840;19;19926;-74
2023/06/28 11:26:36;;;;;;;13.40;8.13;;;30.40;75.40;;;;;;7404809;19;20644;-74
2023/06/28 11:29:17;;;;;;;13.27;7.78;;;30.00;76.30;;;;;;7402759;19;19915;-74
2023/06/28 11:31:48;;;;;;;12.18;8.20;;;30.00;75.50;;;;;;7404666;19;19923;-74
2023/06/28 11:34:15;;;;;;;12.73;7.65;;;29.60;75.70;;;;;;7401057;19;19938;-74
2023/06/28 11:36:43;;;;;;;11.57;7.78;;;29.70;76.20;;;;;;7402368;19;20376;-74
2023/06/28 11:39:17;;;;;;;11.27;7.45;;;29.90;75.90;;;;;;7397642;19;20012;-74
2023/06/28 11:41:44;;;;;;;10.25;7.30;;;29.20;76.90;;;;;;7404518;19;20228;-74
2023/06/28 11:44:13;;;;;;;11.38;7.35;;;29.30;76.30;;;;;;7394216;19;19918;-74
2023/06/28 11:46:45;;;;;;;9.57;7.45;;;29.90;75.60;;;;;;7395583;19;19919;-74
2023/06/28 11:49:15;;;;;;;11.38;6.97;;;29.30;75.70;;;;;;7395252;19;19919;-74
2023/06/28 11:51:41;;;;;;;11.25;7.65;;;29.20;76.20;;;;;;7390461;19;19957;-75
2023/06/28 11:54:07;;;;;;;;;;;29.70;75.80;;;;;;7359330;19;19914;-74
2023/06/28 11:56:41;;;;;;;14.38;7.68;;;30.00;74.30;;;;;;7396257;19;19915;-75
2023/06/28 11:59:17;;;;;;;11.18;7.13;;;30.10;73.00;;;;;;7393133;19;19922;-75
2023/06/28 12:01:47;;;;;;;12.23;7.82;;;29.60;73.40;;;;;;7400019;19;19923;-75
2023/06/28 12:04:20;;;;;;;10.00;7.45;;;30.10;70.40;;;;;;7400101;19;19918;-75
2023/06/28 12:06:47;;;;;;;11.25;7.78;;;29.80;70.50;;;;;;7399741;19;19930;-74
2023/06/28 12:09:31;;;;;;;11.02;6.82;;;30.10;71.10;;;;;;7397346;19;19927;-75
2023/06/28 12:12:05;;;;;;;11.40;7.05;;;30.20;70.70;;;;;;7400889;19;20274;-74
2023/06/28 12:14:48;;;;;;;11.45;6.53;;;30.60;69.30;;;;;;7401832;19;20414;-74
2023/06/28 12:17:16;;;;;;;13.02;6.95;;;30.40;70.30;;;;;;7397504;19;20351;-74
2023/06/28 12:19:44;;;;;;;10.40;7.75;;;29.80;70.70;;;;;;7396221;19;19929;-75
2023/06/28 12:22:09;;;;;;;12.35;7.68;;;30.00;71.80;;;;;;7394722;19;19910;-75
2023/06/28 12:24:37;;;;;;;10.73;7.55;;;30.10;72.50;;;;;;7397689;19;19922;-74
2023/06/28 12:27:05;;;;;;;11.57;7.07;;;29.90;73.80;;;;;;7394710;19;19911;-73
2023/06/28 12:29:36;;;;;;;9.60;6.95;;;30.00;73.30;;;;;;7397102;19;19919;-74
2023/06/28 12:32:11;;;;;;;13.73;7.50;;;31.30;71.10;;;;;;7393248;19;19926;-74
2023/06/28 12:34:38;;;;;;;9.55;7.53;;;31.20;70.50;;;;;;7367800;19;20339;-74